Time;durP1;ratioP1;P1;durP2;ratioP2;P2;SDS_P1;SDS_P2;PMS_P1;PMS_P2;Temp;Humidity;BMP_temperature;BMP_pressure;BME280_temperature;BME280_humidity;BME280_pressure;Samples;Min_cycle;Max_cycle;Signal;HPM_P1;HPM_P2
2024/05/06 00:01:32;;;;;;;8.70;4.90;;;;;;;11.58;100.00;96902.69;5543796;25;20564;-66
2024/05/06 00:03:57;;;;;;;8.43;4.55;;;;;;;11.56;100.00;96894.13;5543798;25;20602;-66
2024/05/06 00:06:23;;;;;;;8.60;4.50;;;;;;;11.47;100.00;96885.91;5543706;25;20233;-66
2024/05/06 00:08:48;;;;;;;12.73;5.00;;;;;;;11.40;100.00;96891.53;5543546;25;20259;-67
2024/05/06 00:13:19;;;;;;;12.32;5.05;;;;;;;11.48;100.00;96905.81;5582806;25;21135;-66
2024/05/06 00:15:45;;;;;;;8.47;4.97;;;;;;;11.50;100.00;96901.34;5545798;25;20211;-66
2024/05/06 00:18:10;;;;;;;8.63;4.57;;;;;;;11.48;100.00;96903.19;5512871;25;20215;-67
2024/05/06 00:20:36;;;;;;;8.80;4.00;;;;;;;11.57;100.00;96901.84;5513028;25;20215;-67
2024/05/06 00:23:01;;;;;;;7.33;4.07;;;;;;;11.50;100.00;96914.34;5512871;25;20573;-67
2024/05/06 00:25:27;;;;;;;8.00;4.20;;;;;;;11.59;100.00;96930.34;5545456;25;20315;-68
2024/05/06 00:27:52;;;;;;;7.07;3.70;;;;;;;11.62;100.00;96941.41;5545407;25;20221;-66
2024/05/06 00:30:20;;;;;;;7.10;4.00;;;;;;;11.69;100.00;96952.34;5512687;25;20702;-66
2024/05/06 00:32:45;;;;;;;7.40;3.58;;;;;;;11.69;100.00;96947.13;5512676;25;20244;-65
2024/05/06 00:37:16;;;;;;;7.95;3.60;;;;;;;11.84;100.00;96943.69;5574875;25;20629;-66
2024/05/06 00:39:41;;;;;;;6.60;3.47;;;;;;;11.83;100.00;96954.16;5506814;26;20232;-66
2024/05/06 00:42:07;;;;;;;7.30;4.00;;;;;;;11.87;100.00;96946.09;5508616;25;20690;-67
2024/05/06 00:44:32;;;;;;;7.00;3.73;;;;;;;11.82;100.00;96947.28;5508545;25;20217;-66
2024/05/06 00:46:58;;;;;;;8.30;3.90;;;;;;;11.81;100.00;96951.66;5506664;26;20715;-66
2024/05/06 00:49:24;;;;;;;7.57;3.83;;;;;;;11.75;100.00;96945.94;5506654;26;20577;-66
2024/05/06 00:51:51;;;;;;;7.25;3.35;;;;;;;11.78;100.00;96943.19;5506669;26;20226;-66
2024/05/06 00:54:17;;;;;;;8.75;3.20;;;;;;;11.71;100.00;96929.66;5475996;26;20245;-65
2024/05/06 00:56:43;;;;;;;7.50;3.10;;;;;;;11.70;100.00;96948.81;5506444;25;20677;-65
2024/05/06 01:01:14;;;;;;;6.70;3.03;;;;;;;11.70;100.00;96954.03;5583079;25;20538;-64
2024/05/06 01:03:40;;;;;;;6.57;3.15;;;;;;;11.69;100.00;96960.97;5545956;25;20224;-61
2024/05/06 01:06:08;;;;;;;6.20;3.05;;;;;;;11.64;100.00;96952.59;5543937;25;20578;-62
2024/05/06 01:08:33;;;;;;;6.50;2.90;;;;;;;11.68;100.00;96964.50;5543828;25;20312;-61
2024/05/06 01:10:59;;;;;;;6.60;2.87;;;;;;;11.70;100.00;96965.25;5543856;25;20221;-61
2024/05/06 01:13:26;;;;;;;6.43;2.97;;;;;;;11.79;100.00;96963.91;5543746;25;20673;-62
2024/05/06 01:15:51;;;;;;;6.35;3.30;;;;;;;11.75;100.00;96957.22;5545625;25;20209;-62
2024/05/06 01:18:17;;;;;;;6.87;3.60;;;;;;;11.81;100.00;96954.25;5543743;25;20247;-62
2024/05/06 01:20:54;;;;;;;6.17;2.87;;;;;;;11.72;100.00;96952.16;5543615;25;20247;-61
2024/05/06 01:25:09;;;;;;;7.03;3.30;;;;;;;11.75;100.00;96935.53;5583206;25;20545;-62
2024/05/06 01:27:34;;;;;;;9.07;4.30;;;;;;;11.81;100.00;96927.41;5545876;25;20309;-62
2024/05/06 01:30:00;;;;;;;8.17;4.97;;;;;;;11.75;100.00;96919.94;5544215;25;20213;-62
2024/05/06 01:32:26;;;;;;;6.83;3.77;;;;;;;11.63;100.00;96911.06;5544131;25;20229;-62
2024/05/06 01:34:51;;;;;;;8.10;4.57;;;;;;;11.60;100.00;96909.47;5545968;25;20223;-62
2024/05/06 01:37:17;;;;;;;7.13;4.10;;;;;;;11.64;100.00;96907.53;5545892;25;20217;-62
2024/05/06 01:39:42;;;;;;;16.23;5.57;;;;;;;11.58;100.00;96910.47;5544052;25;20231;-62
2024/05/06 01:42:08;;;;;;;7.97;4.60;;;;;;;11.59;100.00;96910.41;5545932;25;20322;-62
2024/05/06 01:44:33;;;;;;;8.00;4.53;;;;;;;11.62;100.00;96905.00;5545656;25;20227;-62
2024/05/06 01:49:06;;;;;;;7.60;4.18;;;;;;;11.31;100.00;96905.88;5545414;25;20674;-62
2024/05/06 01:51:31;;;;;;;8.17;5.20;;;;;;;11.47;100.00;96906.72;5508512;26;20217;-62
2024/05/06 01:53:57;;;;;;;7.10;4.63;;;;;;;11.53;100.00;96901.19;5508649;26;20258;-62
2024/05/06 01:56:22;;;;;;;11.10;5.57;;;;;;;11.55;100.00;96908.03;5446155;26;20225;-62
2024/05/06 01:58:48;;;;;;;8.70;4.87;;;;;;;11.57;100.00;96901.00;5508403;26;20252;-62
2024/05/06 02:01:13;;;;;;;14.03;5.07;;;;;;;11.61;100.00;96902.53;5476165;26;20226;-62
2024/05/06 02:03:40;;;;;;;95.50;13.77;;;;;;;11.56;100.00;96883.72;5508596;26;20321;-62
2024/05/06 02:06:05;;;;;;;11.60;5.35;;;;;;;11.57;100.00;96888.84;5508402;26;20265;-62
2024/05/06 02:08:31;;;;;;;9.20;5.17;;;;;;;11.47;100.00;96888.50;5508319;26;20317;-62
2024/05/06 02:13:02;;;;;;;24.38;7.05;;;;;;;11.45;100.00;96871.34;5582967;25;20360;-62
2024/05/06 02:15:28;;;;;;;8.00;4.50;;;;;;;11.41;100.00;96875.88;5545727;25;20316;-62
2024/05/06 02:17:53;;;;;;;7.77;4.60;;;;;;;11.40;100.00;96879.38;5545669;25;20213;-62
2024/05/06 02:20:19;;;;;;;7.90;4.50;;;;;;;11.45;100.00;96882.56;5545563;25;20213;-62
2024/05/06 02:22:45;;;;;;;8.10;4.30;;;;;;;11.48;100.00;96887.59;5512916;25;20245;-63
2024/05/06 02:25:10;;;;;;;8.73;4.60;;;;;;;11.56;100.00;96888.94;5512898;25;20224;-63
2024/05/06 02:27:36;;;;;;;7.73;4.57;;;;;;;11.58;100.00;96887.91;5512606;25;20496;-62
2024/05/06 02:30:01;;;;;;;10.33;5.00;;;;;;;11.55;100.00;96882.03;5512759;25;20267;-62
2024/05/06 02:32:27;;;;;;;6.63;3.43;;;;;;;11.47;100.00;96875.50;5482086;25;20255;-62
2024/05/06 02:36:59;;;;;;;6.60;3.38;;;;;;;11.53;100.00;96877.78;5583085;25;20525;-62
2024/05/06 02:39:25;;;;;;;7.67;3.30;;;;;;;11.50;100.00;96874.53;5545725;25;20219;-62
2024/05/06 02:41:50;;;;;;;7.00;3.37;;;;;;;11.57;100.00;96873.25;5543778;25;20311;-62
2024/05/06 02:44:16;;;;;;;6.47;3.20;;;;;;;11.64;100.00;96884.13;5545871;25;20319;-62
2024/05/06 02:46:41;;;;;;;6.33;3.20;;;;;;;11.57;100.00;96880.19;5544066;25;20631;-62
2024/05/06 02:49:07;;;;;;;7.27;3.57;;;;;;;11.51;100.00;96882.25;5545482;25;20609;-62
2024/05/06 02:51:33;;;;;;;6.95;3.10;;;;;;;11.47;100.00;96887.69;5543787;25;20627;-62
2024/05/06 02:53:58;;;;;;;6.50;3.17;;;;;;;11.48;100.00;96882.41;5545558;25;20210;-62
2024/05/06 02:56:24;;;;;;;6.13;3.03;;;;;;;11.47;100.00;96880.72;5545465;25;20259;-61
2024/05/06 03:00:56;;;;;;;7.45;2.60;;;;;;;11.46;100.00;96873.00;5583005;25;20616;-62
2024/05/06 03:03:22;;;;;;;6.47;3.37;;;;;;;11.42;100.00;96871.50;5545643;25;20227;-61
2024/05/06 03:05:48;;;;;;;6.23;3.10;;;;;;;11.42;100.00;96877.53;5544057;25;20592;-61
2024/05/06 03:08:13;;;;;;;6.50;3.10;;;;;;;11.42;100.00;96881.91;5545819;25;20250;-61
2024/05/06 03:10:39;;;;;;;8.20;3.33;;;;;;;11.42;100.00;96874.91;5545560;25;20524;-62
2024/05/06 03:13:06;;;;;;;5.90;2.80;;;;;;;11.42;100.00;96874.09;5545457;25;20259;-62
2024/05/06 03:15:32;;;;;;;6.30;2.92;;;;;;;11.42;100.00;96871.50;5543714;25;20261;-61
2024/05/06 03:17:57;;;;;;;11.20;2.90;;;;;;;11.38;100.00;96878.63;5543786;25;20229;-61
2024/05/06 03:20:26;;;;;;;6.17;2.80;;;;;;;11.42;100.00;96874.91;5543648;25;20217;-62
2024/05/06 03:25:02;;;;;;;6.13;3.05;;;;;;;11.42;100.00;96869.72;5545310;25;20316;-62
2024/05/06 03:27:27;;;;;;;9.40;3.33;;;;;;;11.40;100.00;96881.97;5545693;25;20292;-62
2024/05/06 03:29:53;;;;;;;6.00;3.03;;;;;;;11.50;100.00;96877.94;5543933;25;20672;-62
2024/05/06 03:32:18;;;;;;;6.33;3.40;;;;;;;11.51;100.00;96871.84;5513075;25;20676;-62
2024/05/06 03:34:44;;;;;;;7.80;3.63;;;;;;;11.34;100.00;96864.13;5543780;25;20323;-61
2024/05/06 03:37:09;;;;;;;6.50;3.03;;;;;;;11.36;100.00;96859.69;5545694;25;20336;-61
2024/05/06 03:39:35;;;;;;;6.17;3.03;;;;;;;11.42;100.00;96845.50;5543852;25;20581;-61
2024/05/06 03:42:00;;;;;;;7.27;3.33;;;;;;;11.39;100.00;96828.31;5543802;25;20222;-61
2024/05/06 03:44:26;;;;;;;7.00;3.30;;;;;;;11.41;100.00;96810.03;5543577;25;20217;-62
2024/05/06 03:48:50;;;;;;;6.60;3.33;;;;;;;11.35;100.00;96795.63;5583132;25;20631;-62
2024/05/06 03:51:16;;;;;;;7.10;3.37;;;;;;;11.31;100.00;96801.91;5546042;25;20223;-61
2024/05/06 03:53:41;;;;;;;6.60;3.30;;;;;;;11.35;100.00;96793.03;5545657;25;20551;-61
2024/05/06 03:56:13;;;;;;;6.60;3.10;;;;;;;11.28;100.00;96800.34;5543800;25;20219;-62
2024/05/06 03:58:38;;;;;;;6.68;3.70;;;;;;;11.26;100.00;96796.97;5543807;25;20221;-62
2024/05/06 04:01:04;;;;;;;6.67;3.27;;;;;;;11.23;100.00;96798.91;5543735;25;20232;-62
2024/05/06 04:03:30;;;;;;;7.00;3.50;;;;;;;11.23;100.00;96793.72;5543761;25;20248;-62
2024/05/06 04:05:55;;;;;;;6.93;3.63;;;;;;;11.31;100.00;96794.97;5545391;25;20660;-62
2024/05/06 04:08:21;;;;;;;7.20;3.70;;;;;;;11.17;100.00;96787.09;5545656;25;20255;-62
2024/05/06 04:12:47;;;;;;;7.32;3.60;;;;;;;11.18;100.00;96801.75;5583246;25;20371;-62
2024/05/06 04:15:13;;;;;;;6.50;3.50;;;;;;;11.29;100.00;96808.97;5545860;25;20316;-62
2024/05/06 04:17:38;;;;;;;7.53;4.00;;;;;;;11.43;100.00;96801.22;5513005;25;20248;-62
2024/05/06 04:20:05;;;;;;;6.60;3.33;;;;;;;11.46;100.00;96793.25;5545518;25;20217;-62
2024/05/06 04:22:30;;;;;;;6.82;3.60;;;;;;;11.46;100.00;96795.84;5545401;25;20213;-62
2024/05/06 04:27:40;;;;;;;6.57;3.33;;;;;;;11.25;100.00;96797.06;5545664;25;20257;-62
2024/05/06 04:30:06;;;;;;;6.50;3.40;;;;;;;11.17;100.00;96812.25;5545565;25;20223;-63
2024/05/06 04:32:33;;;;;;;6.80;3.60;;;;;;;11.28;100.00;96813.31;5545331;25;20254;-63
2024/05/06 04:36:44;;;;;;;7.72;4.10;;;;;;;11.23;100.00;96820.53;5582846;25;20344;-63
2024/05/06 04:39:10;;;;;;;6.60;3.63;;;;;;;11.34;100.00;96820.75;5545807;25;20363;-63
2024/05/06 04:41:36;;;;;;;6.93;3.70;;;;;;;11.44;100.00;96822.84;5543877;25;20569;-62
2024/05/06 04:44:02;;;;;;;7.00;3.83;;;;;;;11.48;100.00;96817.41;5543857;25;20217;-63
2024/05/06 04:46:27;;;;;;;7.70;4.23;;;;;;;11.51;100.00;96806.84;5543819;25;20239;-62
2024/05/06 04:48:53;;;;;;;7.47;4.00;;;;;;;11.52;100.00;96807.66;5543907;25;20220;-63
2024/05/06 04:51:18;;;;;;;6.93;3.80;;;;;;;11.50;100.00;96807.75;5545582;25;20211;-63
2024/05/06 04:53:44;;;;;;;7.87;3.93;;;;;;;11.51;100.00;96799.03;5543651;25;20221;-62
2024/05/06 04:56:10;;;;;;;7.60;4.10;;;;;;;11.53;100.00;96804.97;5543620;25;20221;-63
2024/05/06 05:00:41;;;;;;;7.22;3.70;;;;;;;11.58;100.00;96809.06;5582963;25;20848;-63
2024/05/06 05:03:09;;;;;;;7.67;4.70;;;;;;;11.60;100.00;96817.63;5545781;25;20312;-63
2024/05/06 05:05:35;;;;;;;7.40;3.85;;;;;;;11.48;100.00;96825.19;5512844;25;20217;-63
2024/05/06 05:08:00;;;;;;;7.87;4.30;;;;;;;11.48;100.00;96824.38;5512965;25;20216;-63
2024/05/06 05:10:26;;;;;;;7.47;4.20;;;;;;;11.42;100.00;96833.31;5545367;25;20267;-63
2024/05/06 05:12:52;;;;;;;7.70;4.27;;;;;;;11.34;100.00;96836.38;5512894;25;20219;-63
2024/05/06 05:15:17;;;;;;;7.93;4.28;;;;;;;11.44;100.00;96836.69;5512638;25;20227;-63
2024/05/06 05:17:43;;;;;;;7.47;4.60;;;;;;;11.60;100.00;96854.84;5512503;25;20308;-63
2024/05/06 05:20:09;;;;;;;7.33;3.87;;;;;;;11.70;100.00;96835.22;5512502;25;20333;-63
2024/05/06 05:24:39;;;;;;;8.25;4.15;;;;;;;11.81;100.00;96833.75;5582851;25;20809;-63
2024/05/06 05:27:08;;;;;;;7.85;4.35;;;;;;;11.99;100.00;96843.13;5545801;25;20258;-63
2024/05/06 05:29:34;;;;;;;8.25;4.60;;;;;;;11.87;100.00;96833.38;5543887;25;20567;-63
2024/05/06 05:31:59;;;;;;;7.90;4.47;;;;;;;11.89;100.00;96834.97;5543775;25;20220;-63
2024/05/06 05:34:28;;;;;;;8.03;4.80;;;;;;;11.94;100.00;96831.31;5545673;25;20683;-63
2024/05/06 05:36:54;;;;;;;7.85;4.40;;;;;;;11.99;100.00;96835.31;5545647;25;20217;-63
2024/05/06 05:39:19;;;;;;;7.63;4.20;;;;;;;12.02;100.00;96836.88;5545600;25;20216;-63
2024/05/06 05:41:45;;;;;;;8.53;4.30;;;;;;;12.06;100.00;96830.56;5545464;25;20604;-63
2024/05/06 05:44:13;;;;;;;7.80;3.73;;;;;;;11.97;100.00;96825.91;5545345;25;20374;-63
2024/05/06 05:48:36;;;;;;;7.93;4.20;;;;;;;12.00;100.00;96826.56;5582871;25;20966;-63
2024/05/06 05:51:02;;;;;;;6.67;3.53;;;;;;;11.91;100.00;96814.09;5512947;25;20301;-62
2024/05/06 05:53:27;;;;;;;7.20;3.20;;;;;;;11.98;100.00;96820.63;5512821;25;20247;-63
2024/05/06 05:55:53;;;;;;;8.13;3.93;;;;;;;12.01;100.00;96810.03;5513040;25;20243;-62
2024/05/06 05:58:19;;;;;;;7.10;3.57;;;;;;;12.06;100.00;96794.13;5512713;25;20232;-62
2024/05/06 06:00:44;;;;;;;7.53;3.80;;;;;;;12.08;100.00;96794.91;5545499;25;20324;-62
2024/05/06 06:03:10;;;;;;;8.03;3.73;;;;;;;12.11;100.00;96789.50;5545612;25;20263;-62
2024/05/06 06:05:35;;;;;;;6.40;3.47;;;;;;;12.05;100.00;96787.28;5545517;25;20259;-62
2024/05/06 06:08:01;;;;;;;6.47;2.93;;;;;;;11.92;100.00;96786.34;5512451;25;20224;-62
2024/05/06 06:12:33;;;;;;;6.40;3.22;;;;;;;12.04;100.00;96780.38;5582901;25;20314;-62
2024/05/06 06:14:59;;;;;;;7.07;3.07;;;;;;;12.14;100.00;96781.50;5545875;25;20293;-62
2024/05/06 06:17:25;;;;;;;6.53;3.57;;;;;;;12.41;100.00;96785.97;5543965;25;20312;-62
2024/05/06 06:19:51;;;;;;;6.35;3.70;;;;;;;12.46;100.00;96778.69;5545627;25;20217;-62
2024/05/06 06:22:17;;;;;;;7.32;3.72;;;;;;;12.58;100.00;96788.38;5543797;25;20251;-63
2024/05/06 06:24:43;;;;;;;8.67;3.77;;;;;;;12.66;100.00;96791.34;5545593;25;20216;-63
2024/05/06 06:27:08;;;;;;;7.20;3.80;;;;;;;12.68;100.00;96789.47;5543703;25;20221;-63
2024/05/06 06:29:34;;;;;;;6.80;3.70;;;;;;;12.77;100.00;96792.44;5543698;25;20220;-63
2024/05/06 06:32:00;;;;;;;7.15;3.50;;;;;;;12.71;100.00;96790.22;5545438;25;20594;-63
2024/05/06 06:36:30;;;;;;;7.00;3.47;;;;;;;12.83;100.00;96790.28;5583097;25;20371;-63
2024/05/06 06:38:57;;;;;;;7.80;4.03;;;;;;;12.95;100.00;96793.91;5545963;25;20209;-63
2024/05/06 06:41:23;;;;;;;6.82;3.95;;;;;;;12.89;100.00;96794.28;5512907;25;20224;-63
2024/05/06 06:43:49;;;;;;;7.53;4.20;;;;;;;12.78;100.00;96788.91;5545504;25;20539;-62
2024/05/06 06:46:15;;;;;;;7.40;3.38;;;;;;;12.64;100.00;96792.34;5545475;25;20937;-63
2024/05/06 06:48:41;;;;;;;6.80;3.93;;;;;;;12.77;100.00;96795.88;5512867;25;20217;-63
2024/05/06 06:51:06;;;;;;;6.80;3.40;;;;;;;12.96;100.00;96790.34;5512750;25;20473;-62
2024/05/06 06:53:32;;;;;;;9.00;3.57;;;;;;;12.90;100.00;96776.84;5545533;25;20221;-62
2024/05/06 06:55:58;;;;;;;7.10;3.50;;;;;;;13.05;100.00;96781.94;5545553;25;20216;-63
2024/05/06 07:00:28;;;;;;;6.60;3.30;;;;;;;13.19;100.00;96775.03;5545358;25;20706;-62
2024/05/06 07:02:53;;;;;;;7.83;3.70;;;;;;;13.19;100.00;96768.03;5476151;26;20583;-62
2024/05/06 07:05:20;;;;;;;6.50;3.17;;;;;;;13.32;100.00;96765.50;5476289;26;20245;-63
2024/05/06 07:07:46;;;;;;;7.22;3.65;;;;;;;13.10;100.00;96752.13;5476064;26;20559;-62
2024/05/06 07:10:12;;;;;;;7.10;3.83;;;;;;;13.03;100.00;96742.09;5508328;26;20251;-63
2024/05/06 07:12:37;;;;;;;6.50;3.37;;;;;;;13.10;100.00;96739.09;5475945;26;20931;-62
2024/05/06 07:15:06;;;;;;;7.30;3.63;;;;;;;13.04;100.00;96743.78;5508278;26;20558;-63
2024/05/06 07:17:31;;;;;;;8.55;3.55;;;;;;;13.18;100.00;96742.88;5476159;26;20264;-63
2024/05/06 07:19:57;;;;;;;7.10;3.03;;;;;;;13.27;100.00;96753.66;5508291;26;20314;-63
2024/05/06 07:24:25;;;;;;;7.50;3.47;;;;;;;13.05;100.00;96719.38;5582977;25;20654;-62
2024/05/06 07:26:51;;;;;;;7.40;3.60;;;;;;;13.18;100.00;96724.63;5545679;25;20600;-63
2024/05/06 07:29:16;;;;;;;7.70;3.20;;;;;;;13.16;100.00;96723.06;5543820;25;20223;-63
2024/05/06 07:31:42;;;;;;;8.40;3.20;;;;;;;13.04;100.00;96702.09;5543838;25;20247;-63
2024/05/06 07:34:07;;;;;;;6.87;3.20;;;;;;;13.13;100.00;96708.44;5545657;25;20215;-63
2024/05/06 07:36:33;;;;;;;9.23;3.43;;;;;;;13.12;100.00;96713.78;5543882;25;20652;-63
2024/05/06 07:38:59;;;;;;;7.60;3.20;;;;;;;13.06;100.00;96697.59;5545921;25;20733;-63
2024/05/06 07:41:24;;;;;;;6.70;3.37;;;;;;;13.08;100.00;96700.13;5543722;25;20228;-63
2024/05/06 07:43:50;;;;;;;6.87;3.17;;;;;;;13.00;100.00;96700.59;5545301;25;20442;-63
2024/05/06 07:48:23;;;;;;;6.45;3.20;;;;;;;13.11;100.00;96692.06;5582998;25;20396;-64
2024/05/06 07:50:49;;;;;;;8.05;3.20;;;;;;;13.27;100.00;96712.75;5543871;25;20260;-63
2024/05/06 07:53:15;;;;;;;7.35;3.22;;;;;;;13.22;100.00;96699.19;5543843;25;20227;-63
2024/05/06 07:55:42;;;;;;;9.63;3.70;;;;;;;13.16;100.00;96687.41;5545625;25;20259;-63
2024/05/06 07:58:08;;;;;;;6.90;3.50;;;;;;;13.28;100.00;96706.63;5545696;25;20217;-63
2024/05/06 08:00:35;;;;;;;7.63;3.30;;;;;;;13.37;100.00;96707.78;5545890;25;20257;-63
2024/05/06 08:03:02;;;;;;;7.25;3.60;;;;;;;13.43;100.00;96710.00;5545686;25;20213;-63
2024/05/06 08:05:28;;;;;;;7.05;3.15;;;;;;;13.37;100.00;96699.97;5545453;25;20209;-63
2024/05/06 08:07:53;;;;;;;7.80;3.93;;;;;;;13.42;100.00;96700.50;5545338;25;20263;-63
2024/05/06 08:12:19;;;;;;;13.52;3.78;;;;;;;13.73;100.00;96704.50;5582904;25;20748;-63
2024/05/06 08:14:45;;;;;;;6.90;3.40;;;;;;;13.68;100.00;96697.91;5543887;25;20308;-63
2024/05/06 08:17:13;;;;;;;7.97;3.40;;;;;;;13.69;100.00;96681.34;5543887;25;20250;-63
2024/05/06 08:19:39;;;;;;;7.05;3.67;;;;;;;13.93;100.00;96691.88;5545546;25;20217;-64
2024/05/06 08:22:05;;;;;;;7.05;3.78;;;;;;;13.63;100.00;96679.97;5543883;25;20222;-63
2024/05/06 08:24:30;;;;;;;6.57;3.20;;;;;;;13.66;100.00;96685.00;5545705;25;20209;-64
2024/05/06 08:27:16;;;;;;;15.67;3.30;;;;;;;13.77;100.00;96686.84;5543825;25;20288;-64
2024/05/06 08:29:46;;;;;;;8.48;3.50;;;;;;;13.76;100.00;96686.03;5545585;25;20426;-63
2024/05/06 08:32:13;;;;;;;6.80;3.40;;;;;;;13.89;100.00;96680.78;5545274;25;20221;-64
2024/05/06 08:36:16;;;;;;;6.95;3.30;;;;;;;13.57;100.00;96681.25;5583015;25;20532;-63
2024/05/06 08:38:42;;;;;;;10.73;3.80;;;;;;;13.57;100.00;96667.34;5545835;25;20320;-63
2024/05/06 08:41:09;;;;;;;8.17;3.73;;;;;;;13.60;100.00;96683.63;5543938;25;20245;-63
2024/05/06 08:43:37;;;;;;;6.55;3.20;;;;;;;13.81;100.00;96675.28;5543964;25;20248;-64
2024/05/06 08:46:04;;;;;;;7.00;3.38;;;;;;;13.81;100.00;96672.69;5543910;25;20225;-64
2024/05/06 08:48:30;;;;;;;6.53;3.30;;;;;;;13.59;100.00;96668.09;5545526;25;20259;-64
2024/05/06 08:50:59;;;;;;;7.15;2.97;;;;;;;13.59;100.00;96658.50;5543675;25;20667;-64
2024/05/06 08:53:24;;;;;;;6.28;3.28;;;;;;;13.87;100.00;96656.59;5545375;25;20217;-64
2024/05/06 08:55:50;;;;;;;6.07;2.97;;;;;;;13.87;100.00;96656.59;5543601;25;20222;-64
2024/05/06 09:00:15;;;;;;;8.57;3.20;;;;;;;14.05;100.00;96654.47;5582915;25;20361;-64
2024/05/06 09:02:50;;;;;;;10.27;3.60;;;;;;;14.08;100.00;96659.50;5512865;25;20316;-80
2024/05/06 09:05:28;;;;;;;6.18;3.20;;;;;;;13.86;100.00;96661.91;5512824;25;20230;-64
2024/05/06 09:07:56;;;;;;;7.40;3.92;;;;;;;13.77;100.00;96665.97;5513052;25;20671;-64
2024/05/06 09:10:34;;;;;;;7.28;3.72;;;;;;;13.85;100.00;96668.09;5545645;25;20219;-64
2024/05/06 09:12:59;;;;;;;7.78;3.40;;;;;;;13.71;100.00;96662.00;5545364;25;20318;-63
2024/05/06 09:15:26;;;;;;;7.30;3.10;;;;;;;13.70;100.00;96660.38;5512684;25;20681;-63
2024/05/06 09:17:52;;;;;;;6.78;3.70;;;;;;;13.99;100.00;96660.13;5512560;25;20224;-63
2024/05/06 09:20:19;;;;;;;7.82;4.20;;;;;;;14.11;100.00;96664.47;5512468;25;20239;-63
2024/05/06 09:24:13;;;;;;;9.98;3.50;;;;;;;13.68;100.00;96646.59;5583040;25;20318;-63
2024/05/06 09:26:40;;;;;;;6.38;2.90;;;;;;;13.99;100.00;96657.53;5546006;25;20575;-63
2024/05/06 09:29:06;;;;;;;6.90;3.78;;;;;;;14.28;100.00;96644.16;5545817;25;20259;-64
2024/05/06 09:31:32;;;;;;;7.00;2.90;;;;;;;14.38;100.00;96659.09;5543825;25;20221;-63
2024/05/06 09:33:59;;;;;;;6.20;3.00;;;;;;;14.24;100.00;96658.41;5543733;25;20240;-63
2024/05/06 09:36:26;;;;;;;6.40;3.03;;;;;;;14.15;100.00;96654.66;5545501;25;20217;-63
2024/05/06 09:38:56;;;;;;;7.75;3.40;;;;;;;13.96;100.00;96642.06;5545648;25;20228;-63
2024/05/06 09:41:45;;;;;;;6.93;3.30;;;;;;;13.97;100.00;96652.41;5545443;25;20225;-63
2024/05/06 09:44:12;;;;;;;7.70;4.00;;;;;;;14.43;100.00;96671.81;5545465;25;20317;-64
2024/05/06 09:48:08;;;;;;;6.60;2.83;;;;;;;14.47;100.00;96670.66;5545510;25;20570;-64
2024/05/06 09:50:37;;;;;;;7.60;2.78;;;;;;;14.50;100.00;96667.84;5508416;26;20249;-64
2024/05/06 09:53:03;;;;;;;7.05;3.00;;;;;;;14.41;100.00;96668.50;5476269;26;20222;-64
2024/05/06 09:55:32;;;;;;;7.95;3.22;;;;;;;14.24;100.00;96656.63;5508409;26;20218;-64
2024/05/06 09:58:00;;;;;;;8.02;3.10;;;;;;;13.96;100.00;96669.00;5475910;26;20225;-64
2024/05/06 10:00:26;;;;;;;11.35;3.20;;;;;;;13.96;100.00;96661.16;5508418;26;20274;-64
2024/05/06 10:02:52;;;;;;;7.35;3.33;;;;;;;13.86;100.00;96680.16;5475970;26;20261;-64
2024/05/06 10:05:18;;;;;;;7.00;3.20;;;;;;;13.79;100.00;96685.81;5475911;26;20226;-64
2024/05/06 10:07:44;;;;;;;8.13;3.30;;;;;;;13.66;100.00;96676.31;5508375;26;20326;-64
2024/05/06 10:12:06;;;;;;;7.30;3.25;;;;;;;13.61;100.00;96676.66;5583126;25;20669;-64
2024/05/06 10:14:31;;;;;;;8.07;3.45;;;;;;;13.59;100.00;96679.34;5543935;25;20269;-64
2024/05/06 10:17:09;;;;;;;6.80;3.30;;;;;;;13.77;100.00;96679.88;5545771;25;20560;-64
2024/05/06 10:19:35;;;;;;;8.43;3.40;;;;;;;13.72;100.00;96684.56;5545744;25;20324;-64
2024/05/06 10:22:01;;;;;;;6.60;3.10;;;;;;;13.84;100.00;96680.28;5543721;25;20220;-64
2024/05/06 10:24:26;;;;;;;6.90;3.23;;;;;;;13.82;100.00;96680.41;5545508;25;20688;-64
2024/05/06 10:26:56;;;;;;;7.30;3.23;;;;;;;13.94;100.00;96685.72;5543797;25;20221;-64
2024/05/06 10:29:22;;;;;;;6.90;3.30;;;;;;;14.24;100.00;96694.97;5543779;25;20663;-64
2024/05/06 10:31:49;;;;;;;6.30;3.10;;;;;;;14.23;100.00;96669.81;5545413;25;20213;-64
2024/05/06 10:36:01;;;;;;;7.43;3.40;;;;;;;14.76;100.00;96678.22;5583069;25;21058;-64
2024/05/06 10:38:33;;;;;;;9.13;3.40;;;;;;;14.77;100.00;96669.41;5543890;25;20312;-64
2024/05/06 10:41:01;;;;;;;7.78;3.17;;;;;;;14.98;100.00;96667.84;5545586;25;20221;-64
2024/05/06 10:43:28;;;;;;;7.73;3.20;;;;;;;15.06;100.00;96669.06;5545732;25;20267;-65
2024/05/06 10:45:56;;;;;;;6.22;3.10;;;;;;;15.16;100.00;96672.69;5543806;25;20445;-65
2024/05/06 10:48:25;;;;;;;6.25;3.15;;;;;;;14.70;100.00;96671.66;5543760;25;20734;-64
2024/05/06 10:50:52;;;;;;;6.55;3.55;;;;;;;14.94;100.00;96671.66;5543629;25;20413;-65
2024/05/06 10:53:21;;;;;;;6.78;3.00;;;;;;;14.99;100.00;96673.94;5545512;25;20272;-64
2024/05/06 10:55:51;;;;;;;6.75;3.00;;;;;;;14.69;100.00;96669.97;5543609;25;20677;-64
2024/05/06 10:59:57;;;;;;;10.20;3.53;;;;;;;14.73;100.00;96681.03;5582944;25;20822;-64
2024/05/06 11:02:23;;;;;;;7.73;3.30;;;;;;;14.82;100.00;96677.75;5545770;25;20293;-64
2024/05/06 11:04:49;;;;;;;7.30;3.53;;;;;;;14.93;100.00;96676.97;5543807;25;20677;-64
2024/05/06 11:07:16;;;;;;;6.00;2.95;;;;;;;14.69;100.00;96683.03;5545755;25;20506;-64
2024/05/06 11:09:47;;;;;;;6.80;2.80;;;;;;;14.59;100.00;96676.84;5544052;25;20305;-64
2024/05/06 11:12:15;;;;;;;6.95;3.50;;;;;;;14.63;100.00;96680.88;5545747;25;20827;-65
2024/05/06 11:14:53;;;;;;;6.38;3.05;;;;;;;14.68;100.00;96693.59;5545626;25;20556;-65
2024/05/06 11:17:20;;;;;;;10.18;3.33;;;;;;;14.57;100.00;96681.28;5543751;25;20225;-65
2024/05/06 11:19:47;;;;;;;6.68;3.22;;;;;;;14.19;100.00;96683.06;5543575;25;20677;-65
2024/05/06 11:23:54;;;;;;;7.32;2.97;;;;;;;14.09;100.00;96696.88;5583137;25;20531;-64
2024/05/06 11:26:19;;;;;;;8.33;3.27;;;;;;;14.33;100.00;96692.53;5545755;25;20320;-64
2024/05/06 11:28:45;;;;;;;6.80;3.60;;;;;;;14.59;100.00;96689.91;5545921;25;20210;-65
2024/05/06 11:31:11;;;;;;;6.53;3.27;;;;;;;14.46;100.00;96694.28;5543849;25;20244;-64
2024/05/06 11:33:36;;;;;;;7.67;4.20;;;;;;;14.67;100.00;96691.94;5512720;25;20225;-64
2024/05/06 11:36:02;;;;;;;7.70;4.17;;;;;;;14.74;100.00;96695.78;5545495;25;20316;-64
2024/05/06 11:38:28;;;;;;;8.07;3.70;;;;;;;14.64;100.00;96692.16;5543916;25;20217;-64
2024/05/06 11:40:53;;;;;;;8.40;3.83;;;;;;;14.41;100.00;96694.63;5545461;25;20217;-65
2024/05/06 11:43:19;;;;;;;8.97;4.03;;;;;;;14.42;100.00;96698.06;5543548;25;20568;-65
2024/05/06 11:47:50;;;;;;;6.72;3.30;;;;;;;14.25;100.00;96687.03;5583040;25;20399;-65
2024/05/06 11:50:16;;;;;;;6.70;3.20;;;;;;;14.09;100.00;96692.47;5544021;25;20229;-64
2024/05/06 11:52:41;;;;;;;7.20;2.90;;;;;;;14.29;100.00;96693.69;5543760;25;20268;-65
2024/05/06 11:55:09;;;;;;;7.07;4.17;;;;;;;14.32;100.00;96695.28;5543842;25;20229;-64
2024/05/06 11:57:35;;;;;;;7.95;3.40;;;;;;;14.24;100.00;96706.22;5543788;25;20224;-64
2024/05/06 12:00:00;;;;;;;6.30;3.23;;;;;;;13.71;100.00;96708.97;5545698;25;20793;-64
2024/05/06 12:02:26;;;;;;;5.97;2.80;;;;;;;13.73;100.00;96712.31;5543710;25;20217;-64
2024/05/06 12:05:31;;;;;;;6.80;3.30;;;;;;;13.71;100.00;96708.97;5543627;25;20251;-64
2024/05/06 12:07:56;;;;;;;7.00;3.13;;;;;;;13.68;100.00;96711.81;5545528;25;20761;-64
2024/05/06 12:11:47;;;;;;;6.47;3.10;;;;;;;13.43;100.00;96708.22;5583252;25;20455;-63
2024/05/06 12:14:13;;;;;;;6.57;2.80;;;;;;;13.37;100.00;96711.25;5545607;25;20225;-63
2024/05/06 12:16:39;;;;;;;11.90;3.00;;;;;;;13.38;100.00;96718.13;5543844;25;20364;-64
2024/05/06 12:19:05;;;;;;;6.00;2.50;;;;;;;13.23;100.00;96708.69;5543928;25;20482;-63
2024/05/06 12:21:30;;;;;;;7.70;3.00;;;;;;;13.17;100.00;96709.94;5543752;25;20216;-64
2024/05/06 12:23:56;;;;;;;6.17;2.67;;;;;;;13.14;100.00;96707.53;5545631;25;20629;-64